• Join FlightAware (Why Join?)
  • Login
  • US Flag 
07:47PM EDT


 

Airport Tracker/Info


-or-


 

Live Flight TrackerFlight Track Log ✈ N26141 ✈ 24-Apr-2013 ✈ KDTW - KORD

Flight Track Log - Related Links

Times and Time Zones

All times are in EDT time to prevent confusion due to time zone crossing. See the N26141 flight status page for this flight to view local times or setup timezone preferences in your user account.

Time Position Orientation Groundspeed Altitude Reporting Facility
EDT Latitude Longitude Course Direction KTS MPH feet Rate Location/Type
03:40PM 42.2314 -83.3342 285° West 167 192 1,300  Level Cleveland Center
03:41PM 42.2839 -83.3142 16° North 183 211 4,100 2,220 Climbing Cleveland Center
03:42PM 42.3508 -83.3000 North 236 272 6,300 2,160 Climbing Cleveland Center
03:43PM 42.3700 -83.3797 288° West 265 305 8,500 1,980 Climbing Cleveland Center
03:44PM 42.2942 -83.6983 283° West  Level FlightAware Approximate
03:44PM 42.3819 -83.4786 279° West 276 318 10,000  Level Cleveland Center
03:45PM 42.3110 -83.7884 285° West  Level FlightAware Approximate
03:45PM 42.3853 -83.5939 272° West 355 409 10,200  Level Cleveland Center
03:46PM 42.3925 -83.7125 275° West 347 399 12,000 1,680 Climbing Cleveland Center
03:47PM 42.4017 -83.8394 276° West 340 391 13,600 1,620 Climbing Cleveland Center
03:48PM 42.4106 -83.9664 275° West 340 391 15,300 1,500 Climbing Cleveland Center
03:49PM 42.4192 -84.0964 275° West 345 397 16,600 1,260 Climbing Cleveland Center
03:50PM 42.4253 -84.2289 274° West 351 404 17,900 1,380 Climbing Cleveland Center
03:52PM 42.4369 -84.5406 273° West 361 415 21,500 1,500 Climbing Chicago Center
03:53PM 42.4403 -84.6717 272° West 351 404 23,200 1,200 Climbing Chicago Center
03:54PM 42.4436 -84.8069 272° West 358 412 24,000 360 Climbing Chicago Center
03:55PM 42.4467 -84.9761 271° West 373 429 24,000  Level Chicago Center
03:56PM 42.4500 -85.1178 272° West 376 433 24,000 -120 Level Chicago Center
03:58PM 42.4511 -85.2622 271° West 383 441 23,800 -600 Descending Chicago Center
03:59PM 42.4528 -85.4025 271° West 376 433 22,800 -960 Descending Chicago Center
04:00PM 42.4539 -85.5408 271° West 369 425 21,800 -960 Descending Chicago Center
04:01PM 42.4550 -85.6781 271° West 365 420 20,800 -900 Descending Chicago Center
04:02PM 42.4558 -85.8408 270° West 361 415 20,000 -420 Descending Chicago Center
04:03PM 42.4564 -85.9689 270° West 345 397 20,000  Level Chicago Center
04:04PM 42.4572 -86.0978 271° West 341 392 20,000  Level Chicago Center
04:05PM 42.4572 -86.2314 270° West 351 404 20,000 -300 Level Chicago Center
04:06PM 42.4572 -86.3719 270° West 367 422 19,400 -1,200 Descending Chicago Center
04:07PM 42.4558 -86.5042 269° West 354 407 17,600 -1,800 Descending Chicago Center
04:08PM 42.4572 -86.6375 271° West 353 406 15,700 -2,040 Descending Chicago Center
04:09PM 42.4578 -86.7872 270° West 337 388 13,500 -1,620 Descending Chicago Center
04:10PM 42.4578 -86.9000 270° West 297 342 12,400 -1,440 Descending Chicago Center
04:11PM 42.4569 -87.0025 269° West 275 316 10,600 -1,740 Descending Chicago Center
04:12PM 42.4542 -87.0978 268° West 258 297 8,900 -1,320 Descending Chicago Center
04:13PM 42.4289 -87.1911 250° West 268 308 7,900 -1,020 Descending Chicago Center
04:14PM 42.3711 -87.2567 220° Southwest 269 310 6,900 -960 Descending Chicago Center
04:15PM 42.3067 -87.3375 223° Southwest 272 313 6,000 -540 Descending Chicago Center
04:16PM 42.2581 -87.3964 222° Southwest 239 275 5,900 -540 Descending Chicago Center
04:17PM 42.2058 -87.4608 222° Southwest 251 289 5,000 -480 Descending Chicago Center
04:18PM 42.1475 -87.5336 223° Southwest 242 278 5,000 -540 Level Chicago Center
04:19PM 42.1028 -87.6039 229° Southwest 244 281 4,000 -900 Descending Chicago Center
04:20PM 42.0631 -87.6739 233° Southwest 241 277 3,200 -540 Descending Chicago Center
04:21PM 42.0269 -87.7408 234° Southwest 233 268 2,900 -300 Descending Chicago Center